Time;durP1;ratioP1;P1;durP2;ratioP2;P2;SDS_P1;SDS_P2;PMS_P1;PMS_P2;Temp;Humidity;BMP_temperature;BMP_pressure;BME280_temperature;BME280_humidity;BME280_pressure;Samples;Min_cycle;Max_cycle;Signal;HPM_P1;HPM_P2
2022/08/21 00:01:43;;;;;;;2.17;1.73;;;;;;;19.43;99.41;95718.00;5075227;28;20300;-83
2022/08/21 00:04:10;;;;;;;1.50;1.40;;;;;;;19.41;99.21;95711.41;5074877;28;20254;-83
2022/08/21 00:06:37;;;;;;;1.40;1.30;;;;;;;19.35;99.55;95714.91;5069681;28;20189;-84
2022/08/21 00:09:07;;;;;;;1.75;1.65;;;;;;;19.33;99.54;95715.16;5074327;28;20286;-83
2022/08/21 00:11:34;;;;;;;1.63;1.52;;;;;;;19.29;99.24;95720.03;5073948;28;20212;-83
2022/08/21 00:14:02;;;;;;;2.65;1.90;;;;;;;19.31;99.08;95715.38;5075332;28;20196;-84
2022/08/21 00:16:29;;;;;;;1.63;1.52;;;;;;;19.36;98.91;95719.91;5074230;28;20262;-84
2022/08/21 00:18:56;;;;;;;2.05;1.70;;;;;;;19.34;98.14;95714.13;5074651;28;20228;-84
2022/08/21 00:21:22;;;;;;;1.70;1.60;;;;;;;19.32;97.92;95718.78;5073926;28;20216;-82
2022/08/21 00:23:49;;;;;;;1.80;1.70;;;;;;;19.23;98.13;95713.13;5075695;28;20224;-83
2022/08/21 00:26:15;;;;;;;1.55;1.45;;;;;;;19.25;97.98;95707.63;5074763;28;20247;-84
2022/08/21 00:28:41;;;;;;;3.08;1.50;;;;;;;19.24;98.21;95712.06;5074918;28;20193;-84
2022/08/21 00:31:08;;;;;;;3.28;1.55;;;;;;;19.22;97.97;95714.13;5073789;28;20224;-84
2022/08/21 00:33:36;;;;;;;1.40;1.25;;;;;;;19.16;97.66;95706.41;5075417;28;20219;-84
2022/08/21 00:36:03;;;;;;;1.70;1.40;;;;;;;19.14;97.50;95706.63;5074380;28;20246;-84
2022/08/21 00:38:30;;;;;;;1.50;1.40;;;;;;;19.15;97.33;95703.00;5073350;28;20216;-84
2022/08/21 00:41:00;;;;;;;1.83;1.63;;;;;;;19.16;97.29;95709.81;5074046;28;20228;-82
2022/08/21 00:43:29;;;;;;;1.60;1.50;;;;;;;19.12;96.83;95703.44;5074342;28;20197;-84
2022/08/21 00:45:56;;;;;;;2.28;1.40;;;;;;;19.12;97.09;95706.06;5075050;28;20188;-83
2022/08/21 00:48:24;;;;;;;2.00;1.38;;;;;;;19.04;97.10;95701.19;5073831;28;20227;-81
2022/08/21 00:50:57;;;;;;;1.45;1.35;;;;;;;19.04;97.05;95708.22;5070530;28;20224;-84
2022/08/21 00:53:25;;;;;;;1.30;1.20;;;;;;;19.03;97.21;95706.63;5071116;28;20200;-84
2022/08/21 00:55:53;;;;;;;1.30;1.20;;;;;;;19.07;96.69;95705.13;5072024;28;20193;-84
2022/08/21 00:58:20;;;;;;;1.13;1.02;;;;;;;19.06;96.50;95700.94;5070103;28;20293;-84
2022/08/21 01:00:49;;;;;;;1.30;1.10;;;;;;;19.09;96.39;95705.72;5053926;28;20221;-83
2022/08/21 01:03:17;;;;;;;1.52;1.13;;;;;;;19.01;96.43;95696.44;5053496;28;20731;-83
2022/08/21 01:05:45;;;;;;;1.10;1.10;;;;;;;19.00;95.80;95696.66;5054152;28;20247;-83
2022/08/21 01:08:14;;;;;;;1.23;1.20;;;;;;;19.00;95.99;95694.84;5054090;28;20196;-83
2022/08/21 01:10:41;;;;;;;1.30;1.20;;;;;;;18.98;95.99;95697.66;5046396;28;20237;-84
2022/08/21 01:13:09;;;;;;;1.27;1.15;;;;;;;18.95;95.83;95689.50;5054206;28;20190;-83
2022/08/21 01:15:39;;;;;;;1.30;1.20;;;;;;;18.95;95.81;95686.88;5049678;28;20198;-83
2022/08/21 01:18:08;;;;;;;1.33;1.30;;;;;;;18.91;95.58;95689.13;5049958;28;20283;-82
2022/08/21 01:20:36;;;;;;;1.58;1.40;;;;;;;18.92;95.56;95684.72;5048451;28;20229;-83
2022/08/21 01:23:05;;;;;;;1.45;1.35;;;;;;;18.96;95.55;95680.63;5049472;28;20263;-83
2022/08/21 01:25:32;;;;;;;1.40;1.30;;;;;;;18.94;95.27;95685.28;5048262;28;20194;-83
2022/08/21 01:28:05;;;;;;;1.38;1.27;;;;;;;18.90;94.78;95684.94;5049074;28;20201;-83
2022/08/21 01:30:36;;;;;;;1.20;1.17;;;;;;;18.88;94.83;95683.56;5046659;28;20233;-83
2022/08/21 01:33:04;;;;;;;1.30;1.20;;;;;;;18.85;95.05;95681.44;5049321;28;20649;-82
2022/08/21 01:35:30;;;;;;;1.98;1.13;;;;;;;18.87;94.90;95681.97;5049369;28;20216;-82
2022/08/21 01:37:56;;;;;;;1.50;1.40;;;;;;;18.85;94.54;95686.66;5049698;28;20266;-82
2022/08/21 01:40:24;;;;;;;1.60;1.50;;;;;;;18.88;94.54;95689.59;5048256;28;20229;-83
2022/08/21 01:42:51;;;;;;;1.13;1.10;;;;;;;18.85;94.26;95684.84;5049703;28;20609;-83
2022/08/21 01:45:17;;;;;;;1.23;1.20;;;;;;;18.77;94.20;95693.00;5049377;28;20198;-83
2022/08/21 01:47:45;;;;;;;1.65;1.35;;;;;;;18.80;94.37;95689.13;5049881;28;20672;-82
2022/08/21 01:50:15;;;;;;;2.15;1.20;;;;;;;18.77;94.19;95692.19;5048214;28;20267;-83
2022/08/21 01:52:42;;;;;;;1.45;1.33;;;;;;;18.76;93.98;95680.16;5050000;28;20217;-83
2022/08/21 01:55:10;;;;;;;2.08;1.23;;;;;;;18.72;93.68;95679.81;5050517;28;20202;-83
2022/08/21 01:57:38;;;;;;;2.13;1.10;;;;;;;18.71;93.89;95685.25;5049502;28;20267;-83
2022/08/21 02:00:08;;;;;;;1.77;1.10;;;;;;;18.66;93.93;95680.72;5048633;28;20221;-83
2022/08/21 02:02:34;;;;;;;2.15;1.30;;;;;;;18.60;94.17;95679.81;5048351;28;20689;-82
2022/08/21 02:05:01;;;;;;;2.13;1.30;;;;;;;18.60;93.86;95677.19;5049801;28;20251;-83
2022/08/21 02:07:27;;;;;;;1.90;1.10;;;;;;;18.61;94.26;95670.16;5049169;28;20202;-83
2022/08/21 02:09:53;;;;;;;2.05;1.38;;;;;;;18.55;94.01;95668.41;5048811;28;20225;-83
2022/08/21 02:12:20;;;;;;;2.72;1.17;;;;;;;18.56;93.83;95667.41;5048550;28;20294;-82
2022/08/21 02:14:48;;;;;;;1.30;1.20;;;;;;;18.53;93.65;95660.81;5051002;28;20201;-83
2022/08/21 02:17:14;;;;;;;1.40;1.30;;;;;;;18.52;93.80;95659.22;5050494;28;20637;-82
2022/08/21 02:19:40;;;;;;;1.00;1.00;;;;;;;18.54;93.56;95657.19;5050196;28;20229;-83
2022/08/21 02:22:08;;;;;;;1.67;1.48;;;;;;;18.56;93.61;95656.97;5050081;28;20217;-83
2022/08/21 02:24:34;;;;;;;1.30;1.20;;;;;;;18.56;93.68;95659.56;5050351;28;20267;-84
2022/08/21 02:27:00;;;;;;;1.30;1.20;;;;;;;18.53;93.57;95660.81;5050475;28;20201;-82
2022/08/21 02:29:27;;;;;;;1.50;1.40;;;;;;;18.51;94.01;95668.06;5049703;28;20321;-82
2022/08/21 02:31:54;;;;;;;1.10;1.10;;;;;;;18.48;93.64;95663.28;5050237;28;20705;-84
2022/08/21 02:34:21;;;;;;;1.50;1.40;;;;;;;18.50;93.54;95666.47;5052520;28;20201;-83
2022/08/21 02:36:47;;;;;;;1.20;1.10;;;;;;;18.52;93.47;95663.66;5054303;28;20251;-84
2022/08/21 02:39:14;;;;;;;1.92;1.33;;;;;;;18.54;93.09;95664.22;5053671;28;20233;-84
2022/08/21 02:41:40;;;;;;;1.40;1.30;;;;;;;18.50;92.71;95665.69;5053302;28;20271;-83
2022/08/21 02:44:06;;;;;;;3.40;1.30;;;;;;;18.51;93.04;95662.84;5054646;28;20198;-83
2022/08/21 02:46:33;;;;;;;1.20;1.10;;;;;;;18.47;92.95;95663.53;5053727;28;20210;-82
2022/08/21 02:49:00;;;;;;;2.88;1.40;;;;;;;18.45;92.32;95658.53;5053474;28;20282;-83
2022/08/21 02:51:27;;;;;;;2.15;1.58;;;;;;;18.48;92.90;95662.50;5052443;28;20221;-83
2022/08/21 02:53:53;;;;;;;2.17;1.33;;;;;;;18.50;92.89;95653.44;5053961;28;20198;-84
2022/08/21 02:56:22;;;;;;;1.08;1.05;;;;;;;18.44;92.65;95651.75;5053947;28;20255;-83
2022/08/21 02:58:52;;;;;;;1.15;1.15;;;;;;;18.42;92.78;95650.38;5047216;28;20240;-84
2022/08/21 03:01:19;;;;;;;1.50;1.40;;;;;;;18.37;92.82;95651.03;5052398;28;20235;-83
2022/08/21 03:03:49;;;;;;;1.40;1.30;;;;;;;18.34;93.05;95658.50;5053507;28;20228;-83
2022/08/21 03:06:18;;;;;;;2.35;1.35;;;;;;;18.34;93.05;95663.72;5053407;28;20194;-83
2022/08/21 03:08:45;;;;;;;1.52;1.30;;;;;;;18.29;92.72;95661.78;5053626;28;20229;-83
2022/08/21 03:11:12;;;;;;;1.42;1.33;;;;;;;18.28;92.82;95662.78;5053051;28;20300;-82
2022/08/21 03:13:39;;;;;;;1.65;1.30;;;;;;;18.29;92.88;95659.97;5052717;28;20247;-83
2022/08/21 03:16:06;;;;;;;1.40;1.30;;;;;;;18.25;93.21;95664.06;5053908;28;20903;-83
2022/08/21 03:18:33;;;;;;;1.90;1.40;;;;;;;18.27;92.75;95656.81;5052904;28;20217;-83
2022/08/21 03:20:59;;;;;;;2.25;1.30;;;;;;;18.22;92.68;95669.69;5053053;28;20213;-82
2022/08/21 03:23:27;;;;;;;1.50;1.40;;;;;;;18.23;92.95;95666.06;5053302;28;20227;-82
2022/08/21 03:25:54;;;;;;;1.88;1.50;;;;;;;18.26;92.85;95664.84;5053829;28;20236;-83
2022/08/21 03:28:22;;;;;;;1.90;1.40;;;;;;;18.25;92.47;95666.66;5053349;28;20810;-83
2022/08/21 03:30:50;;;;;;;1.55;1.27;;;;;;;18.23;92.32;95662.69;5072370;28;20676;-83
2022/08/21 03:33:17;;;;;;;1.60;1.50;;;;;;;18.22;92.54;95669.69;5073808;28;20201;-83
2022/08/21 03:35:45;;;;;;;1.38;1.27;;;;;;;18.25;92.36;95658.03;5072927;28;20208;-83
2022/08/21 03:38:13;;;;;;;1.63;1.52;;;;;;;18.20;92.23;95660.50;5072354;28;20246;-83
2022/08/21 03:40:41;;;;;;;1.38;1.27;;;;;;;18.21;92.23;95660.28;5072099;28;20223;-83
2022/08/21 03:43:08;;;;;;;1.50;1.40;;;;;;;18.23;92.34;95663.47;5072776;28;20226;-84
2022/08/21 03:45:35;;;;;;;1.30;1.20;;;;;;;18.21;92.25;95662.91;5072711;28;20205;-83
2022/08/21 03:48:05;;;;;;;1.40;1.30;;;;;;;18.16;92.17;95664.56;5072486;28;20200;-82
2022/08/21 03:50:34;;;;;;;1.98;1.42;;;;;;;18.10;92.19;95655.81;5071023;28;20282;-83
2022/08/21 03:53:01;;;;;;;4.82;1.60;;;;;;;18.14;92.16;95664.78;5072993;28;20197;-83
2022/08/21 03:55:28;;;;;;;1.55;1.45;;;;;;;18.15;92.45;95670.78;5072023;28;20682;-82
2022/08/21 03:57:56;;;;;;;2.33;1.35;;;;;;;18.08;92.22;95670.09;5072593;28;20217;-82
2022/08/21 04:00:23;;;;;;;2.45;1.48;;;;;;;18.04;92.32;95668.94;5071406;28;20228;-83
2022/08/21 04:02:50;;;;;;;2.80;1.50;;;;;;;18.10;92.30;95678.47;5073177;28;20217;-84
2022/08/21 04:05:26;;;;;;;1.70;1.60;;;;;;;18.11;92.85;95673.03;5073185;28;20205;-83
2022/08/21 04:07:53;;;;;;;2.03;1.63;;;;;;;18.13;91.92;95670.22;5072813;28;20197;-83
2022/08/21 04:10:20;;;;;;;2.13;1.48;;;;;;;18.10;91.43;95676.66;5070426;28;20228;-83
2022/08/21 04:12:46;;;;;;;1.60;1.50;;;;;;;18.11;91.41;95682.66;5072737;28;20240;-84
2022/08/21 04:15:14;;;;;;;2.60;1.50;;;;;;;18.08;91.39;95670.09;5073671;28;20200;-84
2022/08/21 04:17:40;;;;;;;1.58;1.48;;;;;;;18.04;91.51;95674.97;5072761;28;20212;-83
2022/08/21 04:20:08;;;;;;;1.73;1.35;;;;;;;18.07;91.21;95674.53;5070728;28;20224;-84
2022/08/21 04:22:34;;;;;;;1.50;1.40;;;;;;;18.06;90.96;95677.34;5071774;28;20573;-83
2022/08/21 04:25:01;;;;;;;1.50;1.40;;;;;;;18.01;90.82;95683.22;5072017;28;20278;-83
2022/08/21 04:27:27;;;;;;;1.45;1.35;;;;;;;18.02;91.19;95682.19;5071335;28;20253;-83
2022/08/21 04:29:53;;;;;;;1.63;1.40;;;;;;;18.02;91.01;95687.41;5071471;28;20315;-83
2022/08/21 04:32:26;;;;;;;3.30;1.60;;;;;;;18.01;90.92;95682.41;5071403;28;20246;-83
2022/08/21 04:34:59;;;;;;;2.38;1.50;;;;;;;18.01;90.93;95688.44;5052705;28;20209;-83
2022/08/21 04:37:25;;;;;;;2.88;1.60;;;;;;;17.99;91.37;95690.44;5051842;28;20201;-82
2022/08/21 04:39:52;;;;;;;1.58;1.48;;;;;;;18.01;91.53;95687.63;5052368;28;20282;-83
2022/08/21 04:42:18;;;;;;;2.15;1.58;;;;;;;17.99;91.75;95695.66;5052312;28;20643;-84
2022/08/21 04:44:45;;;;;;;1.48;1.38;;;;;;;17.93;91.16;95696.53;5053111;28;20632;-81
2022/08/21 04:47:11;;;;;;;1.60;1.50;;;;;;;17.97;90.90;95699.50;5061488;28;20204;-82
2022/08/21 04:49:39;;;;;;;1.52;1.42;;;;;;;17.94;91.07;95706.72;5071882;28;20727;-83
2022/08/21 04:52:06;;;;;;;3.55;1.70;;;;;;;18.00;90.87;95706.88;5071907;28;20247;-83
2022/08/21 04:54:33;;;;;;;2.83;1.58;;;;;;;18.01;90.10;95705.88;5072303;28;20619;-83
2022/08/21 04:57:03;;;;;;;1.95;1.50;;;;;;;18.02;90.26;95703.03;5071659;28;20200;-82
2022/08/21 04:59:34;;;;;;;3.33;1.40;;;;;;;18.09;90.04;95706.34;5071442;28;20298;-82
2022/08/21 05:02:01;;;;;;;1.92;1.50;;;;;;;18.10;89.49;95702.72;5071623;28;20238;-83
2022/08/21 05:04:31;;;;;;;1.33;1.30;;;;;;;18.09;89.64;95705.56;5072032;28;20203;-82
2022/08/21 05:07:01;;;;;;;2.53;1.65;;;;;;;18.08;90.34;95711.81;5071579;28;20239;-84
2022/08/21 05:09:29;;;;;;;1.38;1.30;;;;;;;18.12;90.15;95712.94;5071076;28;20235;-82
2022/08/21 05:11:57;;;;;;;1.55;1.45;;;;;;;18.17;89.74;95700.03;5071521;28;20224;-82
2022/08/21 05:14:24;;;;;;;2.72;1.60;;;;;;;18.17;88.89;95700.84;5072204;28;20699;-82
2022/08/21 05:16:51;;;;;;;2.60;1.40;;;;;;;18.28;89.16;95702.69;5071747;28;20200;-84
2022/08/21 05:19:17;;;;;;;1.48;1.33;;;;;;;18.29;88.42;95706.88;5070814;28;20719;-83
2022/08/21 05:21:47;;;;;;;2.00;1.80;;;;;;;18.32;88.82;95702.25;5071104;28;20231;-83
2022/08/21 05:24:15;;;;;;;1.30;1.25;;;;;;;18.35;88.64;95705.22;5072162;28;20196;-84
2022/08/21 05:26:42;;;;;;;1.63;1.52;;;;;;;18.36;88.72;95696.38;5071494;28;20724;-83
2022/08/21 05:29:08;;;;;;;1.48;1.38;;;;;;;18.40;88.35;95704.56;5071316;28;20660;-82
2022/08/21 05:31:35;;;;;;;1.50;1.40;;;;;;;18.48;88.59;95705.00;5070723;28;20653;-83
2022/08/21 05:34:01;;;;;;;2.20;1.60;;;;;;;18.56;88.74;95714.34;5071840;28;20265;-82
2022/08/21 05:36:27;;;;;;;2.75;1.50;;;;;;;18.60;89.15;95718.13;5071567;28;20690;-83
2022/08/21 05:38:54;;;;;;;2.90;1.50;;;;;;;18.63;88.42;95717.69;5071408;28;20282;-84
2022/08/21 05:41:22;;;;;;;1.25;1.23;;;;;;;18.70;88.28;95714.97;5070911;28;20712;-82
2022/08/21 05:43:49;;;;;;;1.58;1.48;;;;;;;18.69;88.59;95722.00;5071799;28;20205;-84
2022/08/21 05:46:15;;;;;;;1.63;1.52;;;;;;;18.72;88.23;95720.75;5071583;28;20299;-82
2022/08/21 05:48:42;;;;;;;3.63;1.50;;;;;;;18.74;88.68;95723.94;5070709;28;20209;-82
2022/08/21 05:51:12;;;;;;;1.50;1.40;;;;;;;18.77;88.54;95721.69;5070873;28;20220;-83
2022/08/21 05:53:39;;;;;;;1.60;1.50;;;;;;;18.71;88.45;95724.38;5071665;28;20583;-83
2022/08/21 05:56:06;;;;;;;2.50;1.42;;;;;;;18.74;88.83;95726.53;5071403;28;20193;-83
2022/08/21 05:58:34;;;;;;;1.50;1.40;;;;;;;18.81;88.37;95725.44;5070953;28;20633;-82
2022/08/21 06:01:02;;;;;;;1.80;1.48;;;;;;;18.90;87.89;95723.28;5071201;28;20220;-82
2022/08/21 06:03:31;;;;;;;3.90;1.80;;;;;;;18.95;87.58;95724.22;5071937;28;20201;-83
2022/08/21 06:05:58;;;;;;;1.60;1.50;;;;;;;19.01;87.39;95722.53;5072514;28;20204;-83
2022/08/21 06:08:25;;;;;;;1.60;1.50;;;;;;;19.05;87.59;95726.25;5074061;28;20200;-84
2022/08/21 06:10:53;;;;;;;2.30;1.38;;;;;;;19.14;87.35;95731.94;5075486;28;20221;-82
2022/08/21 06:13:21;;;;;;;2.20;1.48;;;;;;;19.22;87.33;95731.63;5075502;28;20565;-82
2022/08/21 06:15:50;;;;;;;1.55;1.42;;;;;;;19.25;87.20;95726.72;5076695;28;20200;-84
2022/08/21 06:18:17;;;;;;;3.10;1.60;;;;;;;19.27;87.24;95734.31;5076480;28;20197;-81
2022/08/21 06:20:43;;;;;;;2.58;1.60;;;;;;;19.26;87.02;95736.13;5074489;28;20224;-83
2022/08/21 06:23:10;;;;;;;2.30;1.50;;;;;;;19.27;87.36;95726.50;5075057;28;20202;-84
2022/08/21 06:25:36;;;;;;;2.05;1.58;;;;;;;19.33;86.94;95731.59;5075199;28;20401;-83
2022/08/21 06:28:05;;;;;;;1.83;1.60;;;;;;;19.36;86.51;95726.97;5075272;28;20209;-83
2022/08/21 06:30:31;;;;;;;1.67;1.58;;;;;;;19.35;87.66;95727.97;5073409;28;20232;-83
2022/08/21 06:32:59;;;;;;;2.47;1.73;;;;;;;19.46;87.92;95729.78;5075087;28;20203;-82
2022/08/21 06:35:26;;;;;;;1.60;1.50;;;;;;;19.55;87.88;95726.63;5074789;28;20232;-83
2022/08/21 06:37:52;;;;;;;2.10;1.65;;;;;;;19.67;87.76;95737.06;5075397;28;20270;-83
2022/08/21 06:40:19;;;;;;;1.85;1.75;;;;;;;19.71;87.66;95726.94;5073508;28;20232;-82
2022/08/21 06:42:45;;;;;;;2.50;1.95;;;;;;;19.74;85.39;95729.09;5074795;28;20728;-82
2022/08/21 06:45:12;;;;;;;2.72;1.70;;;;;;;19.82;86.26;95729.53;5075267;28;20262;-83
2022/08/21 06:47:38;;;;;;;2.75;1.80;;;;;;;19.89;86.09;95724.97;5074776;28;20201;-83
2022/08/21 06:50:08;;;;;;;4.00;1.90;;;;;;;19.93;85.00;95723.50;5073163;28;20232;-84
2022/08/21 06:52:34;;;;;;;3.20;1.92;;;;;;;19.98;84.53;95725.44;5074630;28;20235;-84
2022/08/21 06:55:01;;;;;;;2.53;2.10;;;;;;;19.91;78.42;95725.53;5074242;28;20751;-83
2022/08/21 06:57:27;;;;;;;2.13;1.77;;;;;;;19.85;79.23;95723.06;5074727;28;20575;-83
2022/08/21 06:59:54;;;;;;;3.35;2.00;;;;;;;19.85;78.53;95729.06;5073755;28;20282;-83
2022/08/21 07:02:20;;;;;;;2.53;1.95;;;;;;;19.95;78.90;95720.66;5073978;28;20221;-82
2022/08/21 07:04:46;;;;;;;1.70;1.60;;;;;;;19.99;76.79;95721.78;5074368;28;20200;-83
2022/08/21 07:07:14;;;;;;;4.20;1.80;;;;;;;20.08;77.26;95720.38;5074165;28;20200;-83
2022/08/21 07:09:41;;;;;;;1.90;1.80;;;;;;;20.16;75.99;95714.78;5073596;28;20258;-83
2022/08/21 07:12:08;;;;;;;3.97;2.08;;;;;;;20.29;76.46;95711.09;5073819;28;20314;-83
2022/08/21 07:14:34;;;;;;;2.50;2.00;;;;;;;20.42;75.18;95708.22;5074552;28;20204;-84
2022/08/21 07:17:01;;;;;;;2.50;2.03;;;;;;;20.60;75.58;95709.84;5074192;28;20763;-82
2022/08/21 07:19:27;;;;;;;2.53;2.00;;;;;;;20.76;75.19;95705.66;5073194;28;20301;-84
2022/08/21 07:21:58;;;;;;;2.38;1.92;;;;;;;20.85;72.98;95709.47;5073833;28;20220;-84
2022/08/21 07:24:26;;;;;;;2.50;2.30;;;;;;;20.93;71.54;95703.84;5074425;28;20204;-83
2022/08/21 07:26:53;;;;;;;4.13;2.20;;;;;;;21.07;72.11;95704.31;5074211;28;20664;-83
2022/08/21 07:29:19;;;;;;;3.58;2.17;;;;;;;21.12;71.35;95699.16;5073547;28;20236;-83
2022/08/21 07:31:46;;;;;;;3.00;2.40;;;;;;;21.22;72.06;95700.13;5073307;28;20225;-82
2022/08/21 07:34:12;;;;;;;3.05;2.25;;;;;;;21.32;69.06;95707.34;5074119;28;20289;-83
2022/08/21 07:36:39;;;;;;;6.72;2.60;;;;;;;21.55;69.69;95694.00;5073851;28;20200;-83
2022/08/21 07:39:05;;;;;;;2.65;2.28;;;;;;;21.64;67.91;95703.06;5072570;28;20721;-84
2022/08/21 07:41:35;;;;;;;2.75;2.17;;;;;;;21.85;68.66;95703.31;5072836;28;20743;-83
2022/08/21 07:44:02;;;;;;;2.50;2.20;;;;;;;21.99;67.78;95694.03;5073613;28;20200;-83
2022/08/21 07:46:28;;;;;;;2.72;2.05;;;;;;;21.97;65.34;95698.72;5073331;28;20630;-82
2022/08/21 07:48:55;;;;;;;2.53;2.33;;;;;;;22.05;65.02;95696.50;5073009;28;20749;-83
2022/08/21 07:51:26;;;;;;;2.85;2.47;;;;;;;22.16;65.54;95700.03;5072539;28;20573;-82
2022/08/21 07:53:55;;;;;;;2.45;2.25;;;;;;;22.26;64.81;95697.53;5073110;28;20270;-82
2022/08/21 07:56:22;;;;;;;2.58;2.28;;;;;;;22.45;65.33;95690.09;5073755;28;20196;-83
2022/08/21 07:58:50;;;;;;;2.63;2.30;;;;;;;22.56;64.65;95688.34;5072772;28;20724;-83
2022/08/21 08:01:16;;;;;;;4.50;2.60;;;;;;;22.65;64.14;95690.28;5072336;28;20231;-84
2022/08/21 08:03:43;;;;;;;3.03;2.80;;;;;;;22.70;61.79;95690.34;5073425;28;20247;-83
2022/08/21 08:06:12;;;;;;;3.10;2.72;;;;;;;22.91;62.24;95686.03;5072968;28;20265;-82
2022/08/21 08:08:38;;;;;;;2.53;2.33;;;;;;;22.99;61.32;95684.78;5072745;28;20225;-83
2022/08/21 08:11:05;;;;;;;4.05;2.70;;;;;;;23.13;61.99;95679.88;5072447;28;20274;-83
2022/08/21 08:13:32;;;;;;;2.90;2.70;;;;;;;23.24;61.72;95687.59;5073168;28;20254;-83
2022/08/21 08:15:59;;;;;;;4.43;2.70;;;;;;;23.37;61.12;95683.72;5073156;28;20200;-83
2022/08/21 08:18:26;;;;;;;2.75;2.53;;;;;;;23.39;59.98;95690.31;5072135;28;20197;-82
2022/08/21 08:20:52;;;;;;;2.88;2.53;;;;;;;23.50;58.80;95693.00;5072134;28;20235;-83
2022/08/21 08:23:19;;;;;;;2.78;2.50;;;;;;;23.61;61.00;95684.94;5073553;28;20205;-82
2022/08/21 08:25:45;;;;;;;3.70;2.80;;;;;;;23.78;59.70;95684.75;5073074;28;20197;-83
2022/08/21 08:28:11;;;;;;;3.97;3.00;;;;;;;23.85;58.13;95684.53;5073315;28;20641;-83
2022/08/21 08:30:38;;;;;;;2.80;2.58;;;;;;;23.95;59.03;95682.72;5071375;28;20232;-83
2022/08/21 08:33:06;;;;;;;2.90;2.60;;;;;;;24.09;59.41;95683.00;5073065;28;20633;-83
2022/08/21 08:35:32;;;;;;;2.95;2.60;;;;;;;24.10;58.35;95679.34;5073452;28;20208;-83
2022/08/21 08:37:59;;;;;;;2.88;2.60;;;;;;;24.17;58.22;95677.25;5073247;28;20204;-83
2022/08/21 08:40:32;;;;;;;4.70;2.75;;;;;;;24.24;60.14;95679.69;5072117;28;20282;-83
2022/08/21 08:43:02;;;;;;;3.63;2.58;;;;;;;24.40;59.46;95679.44;5073404;28;20323;-82
2022/08/21 08:45:32;;;;;;;4.22;2.63;;;;;;;24.55;57.37;95678.69;5073048;28;20626;-84
2022/08/21 08:48:04;;;;;;;4.13;2.72;;;;;;;24.74;56.81;95671.84;5072666;28;20605;-81
2022/08/21 08:50:41;;;;;;;3.22;2.92;;;;;;;24.85;55.91;95677.88;5071802;28;20908;-83
2022/08/21 08:53:12;;;;;;;3.53;2.90;;;;;;;24.85;55.30;95677.09;5073655;28;20199;-83
2022/08/21 08:55:40;;;;;;;2.88;2.67;;;;;;;24.86;53.79;95674.19;5073274;28;20652;-84
2022/08/21 08:58:09;;;;;;;4.60;2.65;;;;;;;24.96;55.98;95668.97;5072862;28;20204;-83
2022/08/21 09:00:36;;;;;;;3.45;3.10;;;;;;;25.15;54.21;95674.47;5071408;28;20278;-83
2022/08/21 09:03:04;;;;;;;3.58;2.90;;;;;;;25.30;54.54;95668.38;5073130;28;20255;-84
2022/08/21 09:05:46;;;;;;;3.65;2.85;;;;;;;25.41;55.27;95668.09;5072855;28;20208;-83
2022/08/21 09:08:35;;;;;;;2.90;2.67;;;;;;;25.53;55.18;95667.81;5072963;28;20398;-84
2022/08/21 09:11:05;;;;;;;3.00;2.80;;;;;;;25.59;54.35;95660.69;5052078;28;20229;-83
2022/08/21 09:13:44;;;;;;;3.45;2.78;;;;;;;25.62;54.30;95665.38;5052819;28;20815;-84
2022/08/21 09:16:19;;;;;;;2.90;2.70;;;;;;;25.84;55.86;95665.06;5053190;28;20201;-83
2022/08/21 09:18:56;;;;;;;3.50;2.83;;;;;;;25.97;53.84;95662.66;5051904;28;20231;-82
2022/08/21 09:21:30;;;;;;;3.05;2.78;;;;;;;26.04;53.53;95662.34;5051332;28;20228;-84
2022/08/21 09:24:02;;;;;;;2.97;2.70;;;;;;;26.10;53.59;95663.91;5052089;28;20271;-84
2022/08/21 09:26:36;;;;;;;2.53;2.30;;;;;;;26.04;53.54;95660.50;5052414;28;20201;-84
2022/08/21 09:29:03;;;;;;;3.20;2.42;;;;;;;26.14;54.45;95671.00;5051806;28;20236;-83
2022/08/21 09:31:38;;;;;;;3.03;2.53;;;;;;;26.22;53.25;95668.84;5051543;28;20225;-84
2022/08/21 09:34:06;;;;;;;2.83;2.63;;;;;;;26.25;52.58;95669.09;5052440;28;20262;-83
2022/08/21 09:36:39;;;;;;;3.75;2.60;;;;;;;26.49;54.08;95662.13;5052168;28;20713;-83
2022/08/21 09:39:07;;;;;;;3.75;2.30;;;;;;;26.43;53.96;95665.84;5051416;28;20216;-83
2022/08/21 09:41:36;;;;;;;2.70;2.35;;;;;;;25.78;53.92;95662.47;5051243;28;20224;-84
2022/08/21 09:44:03;;;;;;;3.85;2.40;;;;;;;25.29;55.59;95656.25;5051728;28;20232;-84
2022/08/21 09:46:30;;;;;;;2.88;2.65;;;;;;;25.00;57.43;95648.94;5051925;28;20210;-83
2022/08/21 09:48:58;;;;;;;4.25;2.47;;;;;;;24.77;58.89;95657.34;5051094;28;20282;-84
2022/08/21 09:51:28;;;;;;;2.90;2.70;;;;;;;24.50;60.07;95660.22;5051150;28;20228;-83
2022/08/21 09:54:01;;;;;;;2.72;2.53;;;;;;;24.28;60.06;95657.03;5051788;28;20669;-83
2022/08/21 09:59:20;;;;;;;3.10;2.65;;;;;;;24.22;60.71;95647.53;5051255;28;20274;-84
2022/08/21 10:01:49;;;;;;;2.63;2.17;;;;;;;24.87;58.75;95654.72;5051301;28;20217;-84
2022/08/21 10:04:21;;;;;;;3.15;2.40;;;;;;;25.48;58.18;95646.72;5052144;28;20205;-83
2022/08/21 10:06:48;;;;;;;2.20;2.00;;;;;;;25.66;57.72;95650.66;5051908;28;20201;-84
2022/08/21 10:09:17;;;;;;;2.17;1.98;;;;;;;25.50;58.18;95649.09;5051342;28;20224;-83
2022/08/21 10:11:57;;;;;;;2.78;2.30;;;;;;;25.21;58.62;95648.91;5051582;28;20260;-84
2022/08/21 10:14:43;;;;;;;2.80;2.58;;;;;;;24.92;60.43;95648.66;5052868;28;20623;-83
2022/08/21 10:17:19;;;;;;;3.20;2.65;;;;;;;24.59;61.05;95642.88;5052036;28;20275;-84
2022/08/21 10:19:56;;;;;;;2.85;2.65;;;;;;;24.57;60.22;95646.81;5051735;28;20229;-84
2022/08/21 10:22:34;;;;;;;2.88;2.63;;;;;;;24.50;60.42;95639.16;5051222;28;20326;-84
2022/08/21 10:25:14;;;;;;;6.88;6.35;;;;;;;24.94;58.98;95642.09;5051473;28;20204;-82
2022/08/21 10:27:52;;;;;;;3.55;3.25;;;;;;;25.45;57.67;95639.34;5051486;28;20232;-83
2022/08/21 10:30:26;;;;;;;3.00;2.42;;;;;;;25.93;57.46;95643.16;5050147;28;20259;-83
2022/08/21 10:33:11;;;;;;;3.22;2.90;;;;;;;25.78;58.18;95636.09;5051301;28;20864;-83
2022/08/21 10:35:43;;;;;;;3.65;2.90;;;;;;;25.45;57.69;95629.59;5051527;28;20213;-84
2022/08/21 10:38:35;;;;;;;3.45;3.10;;;;;;;25.11;59.92;95636.53;5051283;28;20201;-84
2022/08/21 10:41:10;;;;;;;3.17;2.60;;;;;;;24.87;60.55;95631.00;5070299;28;20577;-83
2022/08/21 10:43:46;;;;;;;5.95;2.97;;;;;;;24.62;60.91;95634.47;5071574;28;20222;-83
2022/08/21 10:46:21;;;;;;;2.85;2.65;;;;;;;24.45;60.89;95639.16;5070804;28;20262;-84
2022/08/21 10:48:52;;;;;;;2.88;2.65;;;;;;;24.92;60.20;95638.13;5070491;28;20251;-83
2022/08/21 10:51:27;;;;;;;3.30;2.20;;;;;;;25.34;58.68;95629.91;5070347;28;20287;-83
2022/08/21 10:54:04;;;;;;;2.40;2.30;;;;;;;25.73;57.14;95624.78;5071837;28;20193;-82
2022/08/21 10:56:36;;;;;;;3.00;2.25;;;;;;;25.91;55.85;95620.72;5075310;28;20196;-83
2022/08/21 10:59:22;;;;;;;3.33;2.60;;;;;;;26.13;56.64;95624.56;5074018;28;20282;-84
2022/08/21 11:01:53;;;;;;;2.40;2.20;;;;;;;25.99;55.89;95618.28;5074229;28;20227;-84
2022/08/21 11:04:26;;;;;;;2.60;2.40;;;;;;;26.09;55.81;95617.47;5074808;28;20235;-83
2022/08/21 11:06:59;;;;;;;3.35;2.40;;;;;;;26.23;52.89;95613.13;5074833;28;20292;-84
2022/08/21 11:09:27;;;;;;;2.47;2.28;;;;;;;26.38;52.76;95614.91;5074256;28;20232;-83
2022/08/21 11:12:01;;;;;;;2.50;2.30;;;;;;;26.43;51.85;95613.03;5073796;28;20250;-83
2022/08/21 11:14:35;;;;;;;2.53;2.33;;;;;;;26.42;49.17;95610.66;5074454;28;20299;-83
2022/08/21 11:17:08;;;;;;;2.95;2.70;;;;;;;26.44;51.53;95611.16;5074398;28;20269;-84
2022/08/21 11:19:41;;;;;;;3.03;2.70;;;;;;;26.67;52.25;95602.53;5074287;28;20252;-83
2022/08/21 11:22:16;;;;;;;2.60;2.40;;;;;;;26.78;52.49;95604.00;5073805;28;20228;-84
2022/08/21 11:24:49;;;;;;;3.13;2.92;;;;;;;26.58;51.91;95606.84;5074325;28;20204;-83
2022/08/21 11:27:24;;;;;;;2.85;2.50;;;;;;;26.25;51.59;95600.47;5074848;28;20627;-84
2022/08/21 11:29:54;;;;;;;3.00;2.70;;;;;;;25.85;54.27;95605.97;5073815;28;20227;-84
2022/08/21 11:32:54;;;;;;;2.75;2.55;;;;;;;25.64;55.17;95608.72;5074371;28;20225;-83
2022/08/21 11:35:31;;;;;;;2.67;2.53;;;;;;;25.34;56.18;95606.19;5041775;28;20613;-82
2022/08/21 11:38:25;;;;;;;2.85;2.65;;;;;;;25.11;56.18;95603.06;5074808;28;20204;-82
2022/08/21 11:41:04;;;;;;;3.83;3.13;;;;;;;24.92;56.83;95598.59;5073905;28;20229;-83
2022/08/21 11:43:39;;;;;;;2.83;2.60;;;;;;;24.86;56.48;95597.81;5074772;28;20258;-83
2022/08/21 11:46:14;;;;;;;3.47;2.75;;;;;;;25.05;55.86;95596.22;5075336;28;20287;-82